sensor_id;sensor_type;location;lat;lon;timestamp;temperature;humidity
26186;DHT22;20067;48.764;9.176;2023-12-20T00:00:58;7.60;91.30
26186;DHT22;20067;48.764;9.176;2023-12-20T00:03:24;7.60;91.30
26186;DHT22;20067;48.764;9.176;2023-12-20T00:05:50;7.60;91.30
26186;DHT22;20067;48.764;9.176;2023-12-20T00:08:15;7.70;91.30
26186;DHT22;20067;48.764;9.176;2023-12-20T00:10:41;7.70;91.30
26186;DHT22;20067;48.764;9.176;2023-12-20T00:13:07;7.70;91.30
26186;DHT22;20067;48.764;9.176;2023-12-20T00:15:33;7.70;91.30
26186;DHT22;20067;48.764;9.176;2023-12-20T00:17:59;7.70;91.30
26186;DHT22;20067;48.764;9.176;2023-12-20T00:20:26;7.70;91.30
26186;DHT22;20067;48.764;9.176;2023-12-20T00:22:53;7.80;91.30
26186;DHT22;20067;48.764;9.176;2023-12-20T00:25:19;7.80;91.30
26186;DHT22;20067;48.764;9.176;2023-12-20T00:27:45;7.80;91.30
26186;DHT22;20067;48.764;9.176;2023-12-20T00:30:10;7.80;91.30
26186;DHT22;20067;48.764;9.176;2023-12-20T00:32:36;7.80;91.30
26186;DHT22;20067;48.764;9.176;2023-12-20T00:35:02;7.80;91.30
26186;DHT22;20067;48.764;9.176;2023-12-20T00:37:28;7.80;91.30
26186;DHT22;20067;48.764;9.176;2023-12-20T00:39:54;7.70;91.30
26186;DHT22;20067;48.764;9.176;2023-12-20T00:42:19;7.70;91.30
26186;DHT22;20067;48.764;9.176;2023-12-20T00:44:45;7.70;91.30
26186;DHT22;20067;48.764;9.176;2023-12-20T00:47:11;7.70;91.30
26186;DHT22;20067;48.764;9.176;2023-12-20T00:49:36;7.60;91.30
26186;DHT22;20067;48.764;9.176;2023-12-20T00:52:02;7.50;91.30
26186;DHT22;20067;48.764;9.176;2023-12-20T00:54:28;7.60;91.30
26186;DHT22;20067;48.764;9.176;2023-12-20T00:56:54;7.50;91.30
26186;DHT22;20067;48.764;9.176;2023-12-20T00:59:19;7.50;91.30
26186;DHT22;20067;48.764;9.176;2023-12-20T01:01:45;7.50;91.30
26186;DHT22;20067;48.764;9.176;2023-12-20T01:04:11;7.50;91.30
26186;DHT22;20067;48.764;9.176;2023-12-20T01:06:36;7.50;91.30
26186;DHT22;20067;48.764;9.176;2023-12-20T01:09:02;7.40;91.30
26186;DHT22;20067;48.764;9.176;2023-12-20T01:11:28;7.50;91.30
26186;DHT22;20067;48.764;9.176;2023-12-20T01:13:54;7.50;91.30
26186;DHT22;20067;48.764;9.176;2023-12-20T01:16:19;7.40;91.30
26186;DHT22;20067;48.764;9.176;2023-12-20T01:18:45;7.40;91.30
26186;DHT22;20067;48.764;9.176;2023-12-20T01:21:10;7.50;91.30
26186;DHT22;20067;48.764;9.176;2023-12-20T01:23:36;7.30;91.30
26186;DHT22;20067;48.764;9.176;2023-12-20T01:26:02;7.30;91.30
26186;DHT22;20067;48.764;9.176;2023-12-20T01:28:28;7.30;91.30
26186;DHT22;20067;48.764;9.176;2023-12-20T01:30:54;7.40;91.30
26186;DHT22;20067;48.764;9.176;2023-12-20T01:33:19;7.30;91.30
26186;DHT22;20067;48.764;9.176;2023-12-20T01:35:45;7.30;91.30
26186;DHT22;20067;48.764;9.176;2023-12-20T01:38:10;7.40;91.30
26186;DHT22;20067;48.764;9.176;2023-12-20T01:40:36;7.40;91.30
26186;DHT22;20067;48.764;9.176;2023-12-20T01:43:11;7.40;91.30
26186;DHT22;20067;48.764;9.176;2023-12-20T01:45:39;7.40;91.30
26186;DHT22;20067;48.764;9.176;2023-12-20T01:48:06;7.30;91.30
26186;DHT22;20067;48.764;9.176;2023-12-20T01:50:35;7.30;91.30
26186;DHT22;20067;48.764;9.176;2023-12-20T01:53:02;7.30;91.30
26186;DHT22;20067;48.764;9.176;2023-12-20T01:55:31;7.20;91.30
26186;DHT22;20067;48.764;9.176;2023-12-20T01:57:59;7.20;91.30
26186;DHT22;20067;48.764;9.176;2023-12-20T02:00:27;7.20;91.30
26186;DHT22;20067;48.764;9.176;2023-12-20T02:02:54;7.20;91.30
26186;DHT22;20067;48.764;9.176;2023-12-20T02:05:21;7.20;91.30
26186;DHT22;20067;48.764;9.176;2023-12-20T02:07:47;7.20;91.30
26186;DHT22;20067;48.764;9.176;2023-12-20T02:10:13;7.20;91.30
26186;DHT22;20067;48.764;9.176;2023-12-20T02:12:40;7.20;91.30
26186;DHT22;20067;48.764;9.176;2023-12-20T02:15:06;7.20;91.30
26186;DHT22;20067;48.764;9.176;2023-12-20T02:17:32;7.20;91.30
26186;DHT22;20067;48.764;9.176;2023-12-20T02:19:59;7.30;91.30
26186;DHT22;20067;48.764;9.176;2023-12-20T02:22:24;7.30;91.30
26186;DHT22;20067;48.764;9.176;2023-12-20T02:24:50;7.30;91.30
26186;DHT22;20067;48.764;9.176;2023-12-20T02:27:18;7.40;91.30
26186;DHT22;20067;48.764;9.176;2023-12-20T02:29:47;7.40;91.30
26186;DHT22;20067;48.764;9.176;2023-12-20T02:32:13;7.30;91.30
26186;DHT22;20067;48.764;9.176;2023-12-20T02:34:39;7.40;91.30
26186;DHT22;20067;48.764;9.176;2023-12-20T02:37:05;7.40;91.30
26186;DHT22;20067;48.764;9.176;2023-12-20T02:39:30;7.40;91.30
26186;DHT22;20067;48.764;9.176;2023-12-20T02:41:56;7.50;91.30
26186;DHT22;20067;48.764;9.176;2023-12-20T02:44:21;7.50;91.30
26186;DHT22;20067;48.764;9.176;2023-12-20T02:46:47;7.50;91.30
26186;DHT22;20067;48.764;9.176;2023-12-20T02:49:13;7.60;91.30
26186;DHT22;20067;48.764;9.176;2023-12-20T02:51:38;7.70;91.30
26186;DHT22;20067;48.764;9.176;2023-12-20T02:54:04;7.70;91.30
26186;DHT22;20067;48.764;9.176;2023-12-20T02:56:31;7.70;91.30
26186;DHT22;20067;48.764;9.176;2023-12-20T02:58:56;7.80;91.30
26186;DHT22;20067;48.764;9.176;2023-12-20T03:01:22;7.70;91.30
26186;DHT22;20067;48.764;9.176;2023-12-20T03:03:48;7.80;91.30
26186;DHT22;20067;48.764;9.176;2023-12-20T03:06:19;7.90;91.30
26186;DHT22;20067;48.764;9.176;2023-12-20T03:08:45;7.80;91.30
26186;DHT22;20067;48.764;9.176;2023-12-20T03:11:11;7.70;91.30
26186;DHT22;20067;48.764;9.176;2023-12-20T03:13:37;7.60;91.30
26186;DHT22;20067;48.764;9.176;2023-12-20T03:16:09;7.50;91.30
26186;DHT22;20067;48.764;9.176;2023-12-20T03:18:35;7.40;91.30
26186;DHT22;20067;48.764;9.176;2023-12-20T03:21:01;7.30;91.30
26186;DHT22;20067;48.764;9.176;2023-12-20T03:23:27;7.30;91.30
26186;DHT22;20067;48.764;9.176;2023-12-20T03:25:52;7.30;91.30
26186;DHT22;20067;48.764;9.176;2023-12-20T03:28:18;7.30;91.30
26186;DHT22;20067;48.764;9.176;2023-12-20T03:30:44;7.40;91.30
26186;DHT22;20067;48.764;9.176;2023-12-20T03:33:10;7.40;91.30
26186;DHT22;20067;48.764;9.176;2023-12-20T03:35:36;7.40;91.30
26186;DHT22;20067;48.764;9.176;2023-12-20T03:38:01;7.40;91.30
26186;DHT22;20067;48.764;9.176;2023-12-20T03:40:27;7.40;91.30
26186;DHT22;20067;48.764;9.176;2023-12-20T03:42:52;7.50;91.30
26186;DHT22;20067;48.764;9.176;2023-12-20T03:45:18;7.50;91.30
26186;DHT22;20067;48.764;9.176;2023-12-20T03:47:44;7.50;91.30
26186;DHT22;20067;48.764;9.176;2023-12-20T03:50:09;7.50;91.30
26186;DHT22;20067;48.764;9.176;2023-12-20T03:52:35;7.50;91.30
26186;DHT22;20067;48.764;9.176;2023-12-20T03:55:00;7.50;91.30
26186;DHT22;20067;48.764;9.176;2023-12-20T03:57:26;7.50;91.30
26186;DHT22;20067;48.764;9.176;2023-12-20T03:59:51;7.50;91.30
26186;DHT22;20067;48.764;9.176;2023-12-20T04:02:17;7.50;91.30
26186;DHT22;20067;48.764;9.176;2023-12-20T04:04:43;7.60;91.30
26186;DHT22;20067;48.764;9.176;2023-12-20T04:07:09;7.50;91.30
26186;DHT22;20067;48.764;9.176;2023-12-20T04:09:34;7.50;91.30
26186;DHT22;20067;48.764;9.176;2023-12-20T04:12:00;7.60;91.30
26186;DHT22;20067;48.764;9.176;2023-12-20T04:14:26;7.70;91.30
26186;DHT22;20067;48.764;9.176;2023-12-20T04:16:52;7.60;91.30
26186;DHT22;20067;48.764;9.176;2023-12-20T04:19:17;7.50;91.30
26186;DHT22;20067;48.764;9.176;2023-12-20T04:21:43;7.40;91.30
26186;DHT22;20067;48.764;9.176;2023-12-20T04:24:09;7.40;91.30
26186;DHT22;20067;48.764;9.176;2023-12-20T04:26:34;7.30;91.30
26186;DHT22;20067;48.764;9.176;2023-12-20T04:29:00;7.20;91.30
26186;DHT22;20067;48.764;9.176;2023-12-20T04:31:25;7.20;91.30
26186;DHT22;20067;48.764;9.176;2023-12-20T04:33:51;7.30;91.30
26186;DHT22;20067;48.764;9.176;2023-12-20T04:36:16;7.40;91.30
26186;DHT22;20067;48.764;9.176;2023-12-20T04:38:42;7.40;91.30
26186;DHT22;20067;48.764;9.176;2023-12-20T04:41:08;7.30;91.30
26186;DHT22;20067;48.764;9.176;2023-12-20T04:43:33;7.20;91.30
26186;DHT22;20067;48.764;9.176;2023-12-20T04:45:59;7.10;91.30
26186;DHT22;20067;48.764;9.176;2023-12-20T04:48:24;7.00;91.30
26186;DHT22;20067;48.764;9.176;2023-12-20T04:50:50;7.00;91.30
26186;DHT22;20067;48.764;9.176;2023-12-20T04:53:15;7.00;91.30
26186;DHT22;20067;48.764;9.176;2023-12-20T04:55:41;7.00;91.30
26186;DHT22;20067;48.764;9.176;2023-12-20T04:58:07;7.10;91.30
26186;DHT22;20067;48.764;9.176;2023-12-20T05:00:32;7.10;91.30
26186;DHT22;20067;48.764;9.176;2023-12-20T05:02:58;6.90;91.30
26186;DHT22;20067;48.764;9.176;2023-12-20T05:05:23;6.90;91.30
26186;DHT22;20067;48.764;9.176;2023-12-20T05:07:49;7.00;91.30
26186;DHT22;20067;48.764;9.176;2023-12-20T05:10:14;7.10;91.30
26186;DHT22;20067;48.764;9.176;2023-12-20T05:12:40;7.20;91.30
26186;DHT22;20067;48.764;9.176;2023-12-20T05:15:06;7.20;91.30
26186;DHT22;20067;48.764;9.176;2023-12-20T05:17:32;7.10;91.30
26186;DHT22;20067;48.764;9.176;2023-12-20T05:19:57;7.10;91.30
26186;DHT22;20067;48.764;9.176;2023-12-20T05:22:23;7.10;91.30
26186;DHT22;20067;48.764;9.176;2023-12-20T05:24:49;7.00;91.30
26186;DHT22;20067;48.764;9.176;2023-12-20T05:27:15;7.00;91.30
26186;DHT22;20067;48.764;9.176;2023-12-20T05:29:40;6.90;91.30
26186;DHT22;20067;48.764;9.176;2023-12-20T05:32:06;7.00;91.30
26186;DHT22;20067;48.764;9.176;2023-12-20T05:34:31;7.00;91.30
26186;DHT22;20067;48.764;9.176;2023-12-20T05:36:58;6.90;91.30
26186;DHT22;20067;48.764;9.176;2023-12-20T05:39:23;6.90;91.30
26186;DHT22;20067;48.764;9.176;2023-12-20T05:41:49;7.00;91.30
26186;DHT22;20067;48.764;9.176;2023-12-20T05:44:14;7.00;91.30
26186;DHT22;20067;48.764;9.176;2023-12-20T05:46:40;7.00;91.30
26186;DHT22;20067;48.764;9.176;2023-12-20T05:49:06;6.90;91.30
26186;DHT22;20067;48.764;9.176;2023-12-20T05:51:32;6.90;91.30
26186;DHT22;20067;48.764;9.176;2023-12-20T05:53:58;6.90;91.30
26186;DHT22;20067;48.764;9.176;2023-12-20T05:56:24;7.00;91.30
26186;DHT22;20067;48.764;9.176;2023-12-20T05:58:49;6.90;91.30
26186;DHT22;20067;48.764;9.176;2023-12-20T06:01:15;6.90;91.30
26186;DHT22;20067;48.764;9.176;2023-12-20T06:03:44;6.90;91.30
26186;DHT22;20067;48.764;9.176;2023-12-20T06:06:11;6.90;91.30
26186;DHT22;20067;48.764;9.176;2023-12-20T06:08:38;6.90;91.30
26186;DHT22;20067;48.764;9.176;2023-12-20T06:11:04;7.00;91.30
26186;DHT22;20067;48.764;9.176;2023-12-20T06:13:30;6.90;91.30
26186;DHT22;20067;48.764;9.176;2023-12-20T06:15:56;6.90;91.30
26186;DHT22;20067;48.764;9.176;2023-12-20T06:18:22;6.90;91.30
26186;DHT22;20067;48.764;9.176;2023-12-20T06:20:48;7.00;91.30
26186;DHT22;20067;48.764;9.176;2023-12-20T06:23:14;7.00;91.30
26186;DHT22;20067;48.764;9.176;2023-12-20T06:25:39;7.10;91.30
26186;DHT22;20067;48.764;9.176;2023-12-20T06:28:05;7.10;91.30
26186;DHT22;20067;48.764;9.176;2023-12-20T06:30:31;7.00;91.30
26186;DHT22;20067;48.764;9.176;2023-12-20T06:32:58;7.00;91.30
26186;DHT22;20067;48.764;9.176;2023-12-20T06:35:24;7.10;91.30
26186;DHT22;20067;48.764;9.176;2023-12-20T06:37:49;7.10;91.30
26186;DHT22;20067;48.764;9.176;2023-12-20T06:40:15;7.10;91.30
26186;DHT22;20067;48.764;9.176;2023-12-20T06:42:41;7.00;91.30
26186;DHT22;20067;48.764;9.176;2023-12-20T06:45:07;7.00;91.30
26186;DHT22;20067;48.764;9.176;2023-12-20T06:47:33;6.90;91.30
26186;DHT22;20067;48.764;9.176;2023-12-20T06:49:58;7.10;91.30
26186;DHT22;20067;48.764;9.176;2023-12-20T06:52:24;7.10;91.30
26186;DHT22;20067;48.764;9.176;2023-12-20T06:54:50;7.10;91.30
26186;DHT22;20067;48.764;9.176;2023-12-20T06:57:16;7.00;91.30
26186;DHT22;20067;48.764;9.176;2023-12-20T06:59:42;7.00;91.30
26186;DHT22;20067;48.764;9.176;2023-12-20T07:02:08;7.00;91.30
26186;DHT22;20067;48.764;9.176;2023-12-20T07:04:38;7.00;91.30
26186;DHT22;20067;48.764;9.176;2023-12-20T07:07:04;7.00;91.30
26186;DHT22;20067;48.764;9.176;2023-12-20T07:09:30;7.00;91.30
26186;DHT22;20067;48.764;9.176;2023-12-20T07:11:59;7.00;91.30
26186;DHT22;20067;48.764;9.176;2023-12-20T07:14:25;7.00;91.30
26186;DHT22;20067;48.764;9.176;2023-12-20T07:16:54;7.00;91.30
26186;DHT22;20067;48.764;9.176;2023-12-20T07:19:22;7.10;91.30
26186;DHT22;20067;48.764;9.176;2023-12-20T07:21:48;7.10;91.30
26186;DHT22;20067;48.764;9.176;2023-12-20T07:24:13;7.10;91.30
26186;DHT22;20067;48.764;9.176;2023-12-20T07:26:39;7.20;91.30
26186;DHT22;20067;48.764;9.176;2023-12-20T07:29:05;7.30;91.30
26186;DHT22;20067;48.764;9.176;2023-12-20T07:31:35;7.30;91.30
26186;DHT22;20067;48.764;9.176;2023-12-20T07:34:02;7.20;91.30
26186;DHT22;20067;48.764;9.176;2023-12-20T07:36:27;7.10;91.30
26186;DHT22;20067;48.764;9.176;2023-12-20T07:38:56;7.30;91.30
26186;DHT22;20067;48.764;9.176;2023-12-20T07:41:21;7.10;91.30
26186;DHT22;20067;48.764;9.176;2023-12-20T07:43:49;7.10;91.30
26186;DHT22;20067;48.764;9.176;2023-12-20T07:46:17;7.10;91.30
26186;DHT22;20067;48.764;9.176;2023-12-20T07:48:47;6.90;91.30
26186;DHT22;20067;48.764;9.176;2023-12-20T07:51:14;6.90;91.30
26186;DHT22;20067;48.764;9.176;2023-12-20T07:53:43;6.90;91.30
26186;DHT22;20067;48.764;9.176;2023-12-20T07:56:17;6.80;91.30
26186;DHT22;20067;48.764;9.176;2023-12-20T07:58:44;7.00;91.30
26186;DHT22;20067;48.764;9.176;2023-12-20T08:01:16;7.10;91.30
26186;DHT22;20067;48.764;9.176;2023-12-20T08:03:42;7.10;91.30
26186;DHT22;20067;48.764;9.176;2023-12-20T08:06:11;7.10;91.30
26186;DHT22;20067;48.764;9.176;2023-12-20T08:08:45;7.10;91.30
26186;DHT22;20067;48.764;9.176;2023-12-20T08:11:12;7.20;91.30
26186;DHT22;20067;48.764;9.176;2023-12-20T08:13:38;7.30;91.30
26186;DHT22;20067;48.764;9.176;2023-12-20T08:16:04;7.20;91.30
26186;DHT22;20067;48.764;9.176;2023-12-20T08:18:29;7.30;91.30
26186;DHT22;20067;48.764;9.176;2023-12-20T08:20:55;7.30;91.30
26186;DHT22;20067;48.764;9.176;2023-12-20T08:23:22;7.30;91.30
26186;DHT22;20067;48.764;9.176;2023-12-20T08:25:49;7.10;91.30
26186;DHT22;20067;48.764;9.176;2023-12-20T08:28:15;7.10;91.30
26186;DHT22;20067;48.764;9.176;2023-12-20T08:30:42;7.00;91.30
26186;DHT22;20067;48.764;9.176;2023-12-20T08:33:07;6.90;91.30
26186;DHT22;20067;48.764;9.176;2023-12-20T08:35:38;7.00;91.30
26186;DHT22;20067;48.764;9.176;2023-12-20T08:38:05;7.00;91.30
26186;DHT22;20067;48.764;9.176;2023-12-20T08:40:31;6.80;91.30
26186;DHT22;20067;48.764;9.176;2023-12-20T08:42:57;6.70;91.30
26186;DHT22;20067;48.764;9.176;2023-12-20T08:45:24;6.90;91.30
26186;DHT22;20067;48.764;9.176;2023-12-20T08:47:50;6.90;91.30
26186;DHT22;20067;48.764;9.176;2023-12-20T08:50:15;6.80;91.30
26186;DHT22;20067;48.764;9.176;2023-12-20T08:52:43;6.90;91.30
26186;DHT22;20067;48.764;9.176;2023-12-20T08:55:10;7.00;91.30
26186;DHT22;20067;48.764;9.176;2023-12-20T08:57:36;6.90;91.30
26186;DHT22;20067;48.764;9.176;2023-12-20T09:00:02;6.90;91.30
26186;DHT22;20067;48.764;9.176;2023-12-20T09:02:28;6.90;91.30
26186;DHT22;20067;48.764;9.176;2023-12-20T09:04:54;6.80;91.30
26186;DHT22;20067;48.764;9.176;2023-12-20T09:07:25;7.00;91.30
26186;DHT22;20067;48.764;9.176;2023-12-20T09:09:51;7.00;91.30
26186;DHT22;20067;48.764;9.176;2023-12-20T09:12:20;7.00;91.30
26186;DHT22;20067;48.764;9.176;2023-12-20T09:14:47;6.90;91.30
26186;DHT22;20067;48.764;9.176;2023-12-20T09:17:13;6.90;91.30
26186;DHT22;20067;48.764;9.176;2023-12-20T09:19:39;6.90;91.30
26186;DHT22;20067;48.764;9.176;2023-12-20T09:22:05;6.70;91.30
26186;DHT22;20067;48.764;9.176;2023-12-20T09:24:31;6.70;91.30
26186;DHT22;20067;48.764;9.176;2023-12-20T09:26:57;6.70;91.30
26186;DHT22;20067;48.764;9.176;2023-12-20T09:29:23;6.80;91.30
26186;DHT22;20067;48.764;9.176;2023-12-20T09:31:50;6.70;91.30
26186;DHT22;20067;48.764;9.176;2023-12-20T09:34:16;6.70;91.30
26186;DHT22;20067;48.764;9.176;2023-12-20T09:36:42;6.70;91.30
26186;DHT22;20067;48.764;9.176;2023-12-20T09:39:15;6.80;91.30
26186;DHT22;20067;48.764;9.176;2023-12-20T09:41:46;7.00;91.30
26186;DHT22;20067;48.764;9.176;2023-12-20T09:44:16;6.90;91.30
26186;DHT22;20067;48.764;9.176;2023-12-20T09:46:53;7.00;91.30
26186;DHT22;20067;48.764;9.176;2023-12-20T09:49:21;7.40;91.30
26186;DHT22;20067;48.764;9.176;2023-12-20T09:51:48;7.80;91.30
26186;DHT22;20067;48.764;9.176;2023-12-20T09:54:17;8.30;91.30
26186;DHT22;20067;48.764;9.176;2023-12-20T09:56:43;8.70;91.30
26186;DHT22;20067;48.764;9.176;2023-12-20T09:59:09;8.90;91.30
26186;DHT22;20067;48.764;9.176;2023-12-20T10:01:35;9.30;91.30
26186;DHT22;20067;48.764;9.176;2023-12-20T10:04:05;9.70;91.30
26186;DHT22;20067;48.764;9.176;2023-12-20T10:06:52;9.70;91.30
26186;DHT22;20067;48.764;9.176;2023-12-20T10:09:18;10.20;91.20
26186;DHT22;20067;48.764;9.176;2023-12-20T10:11:44;10.30;89.30
26186;DHT22;20067;48.764;9.176;2023-12-20T10:14:10;10.90;89.20
26186;DHT22;20067;48.764;9.176;2023-12-20T10:16:36;11.50;86.90
26186;DHT22;20067;48.764;9.176;2023-12-20T10:19:02;11.50;86.20
26186;DHT22;20067;48.764;9.176;2023-12-20T10:21:27;11.10;87.40
26186;DHT22;20067;48.764;9.176;2023-12-20T10:23:54;10.60;87.50
26186;DHT22;20067;48.764;9.176;2023-12-20T10:26:26;10.20;88.60
26186;DHT22;20067;48.764;9.176;2023-12-20T10:29:00;9.70;89.60
26186;DHT22;20067;48.764;9.176;2023-12-20T10:31:33;9.50;90.30
26186;DHT22;20067;48.764;9.176;2023-12-20T10:34:00;9.10;91.30
26186;DHT22;20067;48.764;9.176;2023-12-20T10:36:31;8.90;91.30
26186;DHT22;20067;48.764;9.176;2023-12-20T10:38:57;8.80;91.30
26186;DHT22;20067;48.764;9.176;2023-12-20T10:41:31;8.50;91.30
26186;DHT22;20067;48.764;9.176;2023-12-20T10:44:00;8.60;91.30
26186;DHT22;20067;48.764;9.176;2023-12-20T10:46:30;8.50;91.30
26186;DHT22;20067;48.764;9.176;2023-12-20T10:48:58;8.40;91.30
26186;DHT22;20067;48.764;9.176;2023-12-20T10:51:25;8.50;91.30
26186;DHT22;20067;48.764;9.176;2023-12-20T10:53:56;8.50;91.30
26186;DHT22;20067;48.764;9.176;2023-12-20T10:56:22;8.30;91.30
26186;DHT22;20067;48.764;9.176;2023-12-20T10:58:49;8.50;91.30
26186;DHT22;20067;48.764;9.176;2023-12-20T11:01:18;8.60;91.30
26186;DHT22;20067;48.764;9.176;2023-12-20T11:03:50;8.30;91.30
26186;DHT22;20067;48.764;9.176;2023-12-20T11:08:51;8.00;91.30
26186;DHT22;20067;48.764;9.176;2023-12-20T11:17:18;8.00;91.30
26186;DHT22;20067;48.764;9.176;2023-12-20T11:20:04;8.00;91.30
26186;DHT22;20067;48.764;9.176;2023-12-20T11:22:31;7.90;91.30
26186;DHT22;20067;48.764;9.176;2023-12-20T11:25:04;7.80;91.30
26186;DHT22;20067;48.764;9.176;2023-12-20T11:27:31;8.00;91.30
26186;DHT22;20067;48.764;9.176;2023-12-20T11:29:58;7.80;91.30
26186;DHT22;20067;48.764;9.176;2023-12-20T11:34:51;7.70;91.30
26186;DHT22;20067;48.764;9.176;2023-12-20T11:37:16;7.70;91.30
26186;DHT22;20067;48.764;9.176;2023-12-20T11:39:44;7.80;91.30
26186;DHT22;20067;48.764;9.176;2023-12-20T11:42:10;7.80;91.30
26186;DHT22;20067;48.764;9.176;2023-12-20T11:44:37;7.80;91.30
26186;DHT22;20067;48.764;9.176;2023-12-20T11:47:03;7.80;91.30
26186;DHT22;20067;48.764;9.176;2023-12-20T11:49:29;7.60;91.30
26186;DHT22;20067;48.764;9.176;2023-12-20T11:51:56;7.60;91.30
26186;DHT22;20067;48.764;9.176;2023-12-20T11:54:22;7.60;91.30
26186;DHT22;20067;48.764;9.176;2023-12-20T11:56:48;7.50;91.30
26186;DHT22;20067;48.764;9.176;2023-12-20T11:59:14;7.40;91.30
26186;DHT22;20067;48.764;9.176;2023-12-20T12:01:39;7.40;91.30
26186;DHT22;20067;48.764;9.176;2023-12-20T12:04:06;7.40;91.30
26186;DHT22;20067;48.764;9.176;2023-12-20T12:06:32;7.30;91.30
26186;DHT22;20067;48.764;9.176;2023-12-20T12:08:58;7.50;91.30
26186;DHT22;20067;48.764;9.176;2023-12-20T12:11:24;7.60;91.30
26186;DHT22;20067;48.764;9.176;2023-12-20T12:13:50;7.70;91.30
26186;DHT22;20067;48.764;9.176;2023-12-20T12:16:20;7.80;91.30
26186;DHT22;20067;48.764;9.176;2023-12-20T12:18:46;7.70;91.30
26186;DHT22;20067;48.764;9.176;2023-12-20T12:21:20;7.80;91.30
26186;DHT22;20067;48.764;9.176;2023-12-20T12:23:46;7.70;91.30
26186;DHT22;20067;48.764;9.176;2023-12-20T12:26:12;7.70;91.30
26186;DHT22;20067;48.764;9.176;2023-12-20T12:28:40;7.80;91.30
26186;DHT22;20067;48.764;9.176;2023-12-20T12:31:07;7.70;91.30
26186;DHT22;20067;48.764;9.176;2023-12-20T12:33:33;7.60;91.30
26186;DHT22;20067;48.764;9.176;2023-12-20T12:36:02;7.70;91.30
26186;DHT22;20067;48.764;9.176;2023-12-20T12:38:31;7.80;91.30
26186;DHT22;20067;48.764;9.176;2023-12-20T12:40:56;7.80;91.30
26186;DHT22;20067;48.764;9.176;2023-12-20T12:43:22;7.80;91.30
26186;DHT22;20067;48.764;9.176;2023-12-20T12:45:49;7.80;91.30
26186;DHT22;20067;48.764;9.176;2023-12-20T12:48:14;7.90;91.30
26186;DHT22;20067;48.764;9.176;2023-12-20T12:50:40;7.90;91.30
26186;DHT22;20067;48.764;9.176;2023-12-20T12:53:06;8.00;91.20
26186;DHT22;20067;48.764;9.176;2023-12-20T12:55:32;7.90;91.30
26186;DHT22;20067;48.764;9.176;2023-12-20T12:57:58;7.80;91.30
26186;DHT22;20067;48.764;9.176;2023-12-20T13:00:27;7.70;91.30
26186;DHT22;20067;48.764;9.176;2023-12-20T13:02:53;7.70;91.30
26186;DHT22;20067;48.764;9.176;2023-12-20T13:05:19;7.80;91.30
26186;DHT22;20067;48.764;9.176;2023-12-20T13:07:44;7.90;91.30
26186;DHT22;20067;48.764;9.176;2023-12-20T13:10:13;7.80;91.30
26186;DHT22;20067;48.764;9.176;2023-12-20T13:12:42;7.70;91.30
26186;DHT22;20067;48.764;9.176;2023-12-20T13:15:07;7.70;91.30
26186;DHT22;20067;48.764;9.176;2023-12-20T13:17:34;7.80;91.30
26186;DHT22;20067;48.764;9.176;2023-12-20T13:19:59;7.80;91.30
26186;DHT22;20067;48.764;9.176;2023-12-20T13:22:25;7.80;91.30
26186;DHT22;20067;48.764;9.176;2023-12-20T13:24:51;8.00;91.30
26186;DHT22;20067;48.764;9.176;2023-12-20T13:27:16;8.00;91.30
26186;DHT22;20067;48.764;9.176;2023-12-20T13:29:42;8.10;91.30
26186;DHT22;20067;48.764;9.176;2023-12-20T13:32:08;8.20;91.30
26186;DHT22;20067;48.764;9.176;2023-12-20T13:34:33;8.30;91.30
26186;DHT22;20067;48.764;9.176;2023-12-20T13:36:59;8.50;90.30
26186;DHT22;20067;48.764;9.176;2023-12-20T13:39:24;8.50;90.40
26186;DHT22;20067;48.764;9.176;2023-12-20T13:41:50;8.40;90.10
26186;DHT22;20067;48.764;9.176;2023-12-20T13:44:16;8.10;90.80
26186;DHT22;20067;48.764;9.176;2023-12-20T13:46:41;8.10;90.90
26186;DHT22;20067;48.764;9.176;2023-12-20T13:49:10;8.00;91.00
26186;DHT22;20067;48.764;9.176;2023-12-20T13:51:37;8.20;91.30
26186;DHT22;20067;48.764;9.176;2023-12-20T13:54:04;8.10;91.30
26186;DHT22;20067;48.764;9.176;2023-12-20T13:56:29;7.90;91.30
26186;DHT22;20067;48.764;9.176;2023-12-20T13:58:55;8.00;91.30
26186;DHT22;20067;48.764;9.176;2023-12-20T14:01:21;8.00;91.30
26186;DHT22;20067;48.764;9.176;2023-12-20T14:03:46;8.00;91.30
26186;DHT22;20067;48.764;9.176;2023-12-20T14:06:12;8.00;91.30
26186;DHT22;20067;48.764;9.176;2023-12-20T14:08:39;7.80;91.30
26186;DHT22;20067;48.764;9.176;2023-12-20T14:11:05;7.80;91.30
26186;DHT22;20067;48.764;9.176;2023-12-20T14:13:30;7.80;91.30
26186;DHT22;20067;48.764;9.176;2023-12-20T14:15:57;7.80;91.30
26186;DHT22;20067;48.764;9.176;2023-12-20T14:18:24;7.80;91.30
26186;DHT22;20067;48.764;9.176;2023-12-20T14:20:49;7.70;91.30
26186;DHT22;20067;48.764;9.176;2023-12-20T14:23:16;7.70;91.30
26186;DHT22;20067;48.764;9.176;2023-12-20T14:25:42;7.50;91.30
26186;DHT22;20067;48.764;9.176;2023-12-20T14:28:08;7.50;91.30
26186;DHT22;20067;48.764;9.176;2023-12-20T14:30:35;7.50;91.30
26186;DHT22;20067;48.764;9.176;2023-12-20T14:33:04;7.40;91.30
26186;DHT22;20067;48.764;9.176;2023-12-20T14:35:30;7.40;91.30
26186;DHT22;20067;48.764;9.176;2023-12-20T14:37:56;7.40;91.30
26186;DHT22;20067;48.764;9.176;2023-12-20T14:40:22;7.30;91.30
26186;DHT22;20067;48.764;9.176;2023-12-20T14:42:47;7.20;91.30
26186;DHT22;20067;48.764;9.176;2023-12-20T14:45:15;7.20;91.30
26186;DHT22;20067;48.764;9.176;2023-12-20T14:47:42;7.20;91.30
26186;DHT22;20067;48.764;9.176;2023-12-20T14:50:08;7.20;91.30
26186;DHT22;20067;48.764;9.176;2023-12-20T14:52:34;7.30;91.30
26186;DHT22;20067;48.764;9.176;2023-12-20T14:55:03;7.40;91.30
26186;DHT22;20067;48.764;9.176;2023-12-20T14:57:29;7.40;91.30
26186;DHT22;20067;48.764;9.176;2023-12-20T14:59:56;7.30;91.30
26186;DHT22;20067;48.764;9.176;2023-12-20T15:02:22;7.10;91.30
26186;DHT22;20067;48.764;9.176;2023-12-20T15:04:47;7.10;91.30
26186;DHT22;20067;48.764;9.176;2023-12-20T15:07:13;7.10;91.30
26186;DHT22;20067;48.764;9.176;2023-12-20T15:09:38;7.10;91.30
26186;DHT22;20067;48.764;9.176;2023-12-20T15:12:04;7.10;91.30
26186;DHT22;20067;48.764;9.176;2023-12-20T15:14:30;7.10;91.30
26186;DHT22;20067;48.764;9.176;2023-12-20T15:16:56;7.10;91.30
26186;DHT22;20067;48.764;9.176;2023-12-20T15:19:22;7.00;91.30
26186;DHT22;20067;48.764;9.176;2023-12-20T15:21:48;7.00;91.30
26186;DHT22;20067;48.764;9.176;2023-12-20T15:24:16;7.00;91.30
26186;DHT22;20067;48.764;9.176;2023-12-20T15:26:44;7.00;91.30
26186;DHT22;20067;48.764;9.176;2023-12-20T15:29:11;6.90;91.30
26186;DHT22;20067;48.764;9.176;2023-12-20T15:31:48;6.90;91.30
26186;DHT22;20067;48.764;9.176;2023-12-20T15:34:14;6.70;91.30
26186;DHT22;20067;48.764;9.176;2023-12-20T15:36:40;6.70;91.30
26186;DHT22;20067;48.764;9.176;2023-12-20T15:39:07;6.70;91.30
26186;DHT22;20067;48.764;9.176;2023-12-20T15:41:36;6.60;91.30
26186;DHT22;20067;48.764;9.176;2023-12-20T15:44:02;6.60;91.30
26186;DHT22;20067;48.764;9.176;2023-12-20T15:46:27;6.60;91.30
26186;DHT22;20067;48.764;9.176;2023-12-20T15:48:53;6.60;91.30
26186;DHT22;20067;48.764;9.176;2023-12-20T15:51:21;6.60;91.30